Time;durP1;ratioP1;P1;durP2;ratioP2;P2;SDS_P1;SDS_P2;PMS_P1;PMS_P2;Temp;Humidity;BMP_temperature;BMP_pressure;BME280_temperature;BME280_humidity;BME280_pressure;Samples;Min_cycle;Max_cycle;Signal;HPM_P1;HPM_P2
2022/04/12 03:00:07;;;;;;;0.47;0.47;;;17.10;46.40;;;;;;6036183;23;45709;31
2022/04/12 03:02:32;;;;;;;0.57;0.57;;;17.10;46.40;;;;;;4876155;28;45769;-57
2022/04/12 03:04:58;;;;;;;1.35;0.60;;;17.10;46.40;;;;;;4882571;29;45509;-57
2022/04/12 03:07:23;;;;;;;1.73;0.60;;;17.10;46.40;;;;;;4891024;28;45346;-57
2022/04/12 03:09:49;;;;;;;0.63;0.60;;;17.10;46.40;;;;;;4903501;28;44965;-58
2022/04/12 03:12:15;;;;;;;0.68;0.68;;;17.10;46.40;;;;;;4903117;28;46796;-59
2022/04/12 03:14:40;;;;;;;0.52;0.50;;;17.10;46.40;;;;;;4898888;28;45276;-58
2022/04/12 03:17:06;;;;;;;0.60;0.60;;;17.10;46.40;;;;;;4899871;28;45448;-58
2022/04/12 03:19:32;;;;;;;0.40;0.40;;;17.10;46.50;;;;;;4901756;28;44695;-56
2022/04/12 03:21:57;;;;;;;0.43;0.43;;;17.10;46.50;;;;;;4898999;28;46301;-55
2022/04/12 03:24:23;;;;;;;0.70;0.60;;;17.10;46.50;;;;;;4898613;28;45466;-58
2022/04/12 03:26:49;;;;;;;0.70;0.65;;;17.10;46.50;;;;;;4912052;28;44643;-57
2022/04/12 03:29:16;;;;;;;0.93;0.70;;;17.10;46.50;;;;;;4908611;28;45921;-58
2022/04/12 03:31:42;;;;;;;0.90;0.70;;;17.10;46.50;;;;;;4899316;28;46124;-54
2022/04/12 03:34:08;;;;;;;1.02;0.70;;;17.10;46.50;;;;;;4885521;28;45076;-58
2022/04/12 03:36:34;;;;;;;1.55;0.80;;;17.00;46.50;;;;;;4900268;28;44689;-58
2022/04/12 03:38:59;;;;;;;0.80;0.70;;;17.00;46.50;;;;;;4901886;28;45575;-58
2022/04/12 03:41:25;;;;;;;0.80;0.80;;;17.00;46.50;;;;;;4902777;28;46129;-57
2022/04/12 03:43:51;;;;;;;0.80;0.80;;;17.00;46.50;;;;;;4908031;28;45255;-56
2022/04/12 03:46:16;;;;;;;1.25;0.70;;;17.00;46.50;;;;;;4905070;28;45211;-57
2022/04/12 03:48:42;;;;;;;1.00;0.68;;;17.00;46.50;;;;;;4902936;28;45290;-58
2022/04/12 03:51:08;;;;;;;1.15;0.70;;;17.00;46.60;;;;;;4906964;28;46140;-58
2022/04/12 03:53:33;;;;;;;0.98;0.60;;;17.00;46.60;;;;;;4900000;29;44596;-57
2022/04/12 03:55:59;;;;;;;0.63;0.60;;;17.00;46.60;;;;;;4898007;28;45367;-59
2022/04/12 03:58:26;;;;;;;0.70;0.60;;;17.00;46.60;;;;;;4894698;28;46252;-58
2022/04/12 04:00:51;;;;;;;0.98;0.60;;;17.00;46.60;;;;;;4898255;28;46860;-58
2022/04/12 04:03:20;;;;;;;0.40;0.40;;;16.90;46.60;;;;;;4898037;28;45351;-57
2022/04/12 04:05:46;;;;;;;0.90;0.63;;;16.90;46.60;;;;;;4902703;28;45475;-58
2022/04/12 04:08:11;;;;;;;0.50;0.50;;;17.00;46.60;;;;;;4898802;28;45676;-56
2022/04/12 04:10:37;;;;;;;0.70;0.60;;;17.00;46.60;;;;;;4883610;29;47088;-57
2022/04/12 04:13:08;;;;;;;0.70;0.60;;;16.90;46.60;;;;;;4900682;29;45142;-58
2022/04/12 04:15:37;;;;;;;0.40;0.40;;;16.90;47.20;;;;;;4899119;28;45232;-57
2022/04/12 04:18:03;;;;;;;1.02;0.80;;;16.90;46.60;;;;;;4896529;28;44853;-58
2022/04/12 04:20:28;;;;;;;0.88;0.65;;;16.90;46.60;;;;;;4902728;28;45326;-57
2022/04/12 04:22:54;;;;;;;1.00;0.75;;;16.90;46.60;;;;;;4893638;28;45036;-57
2022/04/12 04:25:19;;;;;;;0.63;0.63;;;16.80;46.70;;;;;;4903833;28;45153;-56
2022/04/12 04:27:45;;;;;;;0.80;0.80;;;16.90;46.70;;;;;;4898463;29;45555;-57
2022/04/12 04:30:11;;;;;;;0.70;0.70;;;16.90;46.70;;;;;;4901606;28;46141;-57
2022/04/12 04:32:37;;;;;;;0.55;0.50;;;16.80;46.70;;;;;;4883334;28;45205;-57
2022/04/12 04:35:03;;;;;;;0.80;0.60;;;16.80;46.70;;;;;;4899872;28;45390;-58
2022/04/12 04:37:29;;;;;;;0.68;0.68;;;16.80;46.60;;;;;;4896498;28;45245;-58
2022/04/12 04:39:54;;;;;;;0.93;0.70;;;16.90;46.60;;;;;;4903731;28;46081;-60
2022/04/12 04:42:24;;;;;;;0.75;0.65;;;16.80;46.60;;;;;;4884458;29;44914;-56
2022/04/12 04:44:50;;;;;;;1.02;0.60;;;16.80;46.60;;;;;;4905936;28;45012;-57
2022/04/12 04:47:15;;;;;;;0.63;0.60;;;16.80;46.60;;;;;;4897577;29;45047;-57
2022/04/12 04:49:41;;;;;;;0.95;0.75;;;16.80;47.20;;;;;;4894822;28;45889;-55
2022/04/12 04:52:07;;;;;;;0.77;0.60;;;16.80;46.70;;;;;;4897545;28;45205;-57
2022/04/12 04:54:33;;;;;;;0.85;0.70;;;16.80;46.60;;;;;;4898656;28;45642;-56
2022/04/12 04:56:58;;;;;;;0.75;0.65;;;16.80;47.30;;;;;;4897504;28;45454;-57
2022/04/12 04:59:24;;;;;;;1.00;0.68;;;16.80;46.70;;;;;;4878713;28;46543;-57
2022/04/12 05:01:50;;;;;;;0.65;0.60;;;16.80;46.70;;;;;;4885520;28;45380;-56
2022/04/12 05:04:15;;;;;;;0.65;0.60;;;16.80;46.70;;;;;;4873655;29;45223;-58
2022/04/12 05:06:41;;;;;;;0.65;0.63;;;16.80;46.70;;;;;;4876316;29;45607;-57
2022/04/12 05:09:06;;;;;;;0.68;0.50;;;16.80;46.70;;;;;;4855467;29;45649;-55
2022/04/12 05:11:32;;;;;;;0.75;0.60;;;16.80;46.70;;;;;;4873296;29;45672;-57
2022/04/12 05:13:57;;;;;;;0.73;0.73;;;16.80;46.70;;;;;;4858156;29;45530;-56
2022/04/12 05:16:23;;;;;;;0.82;0.77;;;16.80;46.70;;;;;;4880063;29;46814;-57
2022/04/12 05:18:51;;;;;;;0.63;0.63;;;16.80;46.70;;;;;;4886468;29;45944;-57
2022/04/12 05:21:17;;;;;;;0.93;0.70;;;16.70;46.60;;;;;;4878025;29;44893;-57
2022/04/12 05:23:43;;;;;;;0.77;0.73;;;16.80;46.70;;;;;;4880205;29;45010;-59
2022/04/12 05:26:09;;;;;;;0.60;0.55;;;16.80;46.70;;;;;;4877108;29;45006;-56
2022/04/12 05:28:34;;;;;;;1.00;0.80;;;16.90;46.50;;;;;;4880284;29;46190;-56
2022/04/12 05:31:00;;;;;;;1.58;0.90;;;17.00;46.20;;;;;;4876336;29;44750;-55
2022/04/12 05:33:25;;;;;;;0.80;0.70;;;17.00;46.20;;;;;;4881400;29;45953;-57
2022/04/12 05:35:51;;;;;;;1.17;0.70;;;17.00;46.20;;;;;;4881986;29;44880;-55
2022/04/12 05:38:16;;;;;;;0.68;0.65;;;16.90;46.20;;;;;;4876070;29;46087;-56
2022/04/12 05:40:42;;;;;;;0.60;0.60;;;16.90;46.20;;;;;;4885143;29;45446;-59
2022/04/12 05:43:07;;;;;;;1.35;0.70;;;16.90;46.30;;;;;;4880842;29;45423;-58
2022/04/12 05:45:33;;;;;;;0.60;0.60;;;16.90;46.30;;;;;;4873357;29;45310;-59
2022/04/12 05:48:00;;;;;;;0.70;0.68;;;16.90;46.30;;;;;;4877767;29;45157;-58
2022/04/12 05:50:26;;;;;;;0.82;0.70;;;16.90;46.20;;;;;;4877170;29;44706;-58
2022/04/12 05:52:52;;;;;;;0.82;0.70;;;16.90;46.20;;;;;;4879573;29;45455;-56
2022/04/12 05:55:19;;;;;;;0.60;0.60;;;17.00;46.10;;;;;;4877881;29;45048;-57
2022/04/12 05:57:52;;;;;;;0.98;0.80;;;17.10;45.90;;;;;;4880528;29;46370;-56
2022/04/12 06:00:18;;;;;;;1.00;0.70;;;17.40;45.50;;;;;;4888517;29;45403;-57
2022/04/12 06:02:45;;;;;;;0.73;0.60;;;17.60;45.10;;;;;;4906022;28;45522;-54
2022/04/12 06:05:13;;;;;;;3.47;0.77;;;17.70;44.80;;;;;;4883551;28;44672;-60
2022/04/12 06:07:39;;;;;;;2.90;0.77;;;17.60;44.70;;;;;;4898016;28;45202;-60
2022/04/12 06:10:05;;;;;;;4.15;1.35;;;17.60;44.80;;;;;;4904021;28;45186;-59
2022/04/12 06:12:31;;;;;;;2.08;1.63;;;17.50;44.60;;;;;;4896458;28;45286;-57
2022/04/12 06:14:56;;;;;;;3.22;1.52;;;17.50;44.00;;;;;;4896179;29;45883;-58
2022/04/12 06:17:27;;;;;;;1.33;1.20;;;17.50;44.20;;;;;;4900178;28;45618;-54
2022/04/12 06:19:53;;;;;;;5.82;1.20;;;17.50;44.20;;;;;;4904975;28;45493;-58
2022/04/12 06:22:18;;;;;;;1.60;1.20;;;17.60;44.20;;;;;;4904135;28;45114;-59
2022/04/12 06:24:44;;;;;;;1.10;1.00;;;17.60;44.10;;;;;;4887817;28;44993;-61
2022/04/12 06:27:10;;;;;;;2.53;1.40;;;17.70;44.10;;;;;;4898758;28;47177;-59
2022/04/12 06:29:35;;;;;;;1.73;1.27;;;17.80;44.00;;;;;;4915838;28;44905;-58
2022/04/12 06:32:01;;;;;;;2.22;1.10;;;17.90;44.00;;;;;;4911816;28;45345;-59
2022/04/12 06:34:26;;;;;;;2.47;1.20;;;18.10;43.90;;;;;;4908792;28;45418;-60
2022/04/12 06:36:52;;;;;;;1.10;1.00;;;18.20;43.90;;;;;;4906505;28;45869;-61
2022/04/12 06:39:17;;;;;;;2.35;1.05;;;18.30;43.90;;;;;;4900166;28;45174;-58
2022/04/12 06:41:43;;;;;;;1.23;0.95;;;18.40;43.80;;;;;;4909284;28;44723;-58
2022/04/12 06:44:09;;;;;;;1.42;1.00;;;18.50;43.70;;;;;;4900483;29;46185;-58
2022/04/12 06:46:34;;;;;;;2.55;0.88;;;18.60;43.60;;;;;;4899098;28;45981;-59
2022/04/12 06:49:00;;;;;;;2.33;0.98;;;18.70;43.50;;;;;;4902451;28;45374;-62
2022/04/12 06:51:25;;;;;;;1.13;0.70;;;18.80;43.40;;;;;;4896704;28;45589;-61
2022/04/12 06:53:51;;;;;;;2.22;0.77;;;19.00;43.40;;;;;;4885429;28;45566;-58
2022/04/12 06:56:17;;;;;;;1.35;0.73;;;19.10;43.30;;;;;;4898814;28;44942;-60
2022/04/12 06:58:43;;;;;;;1.55;0.70;;;19.20;43.80;;;;;;4899763;28;45442;-61
2022/04/12 07:01:09;;;;;;;1.05;0.73;;;19.30;43.10;;;;;;4910761;28;45295;-60
2022/04/12 07:03:34;;;;;;;0.70;0.70;;;19.40;43.10;;;;;;4903189;28;45123;-60
2022/04/12 07:06:00;;;;;;;2.90;0.70;;;19.50;42.90;;;;;;4912313;28;46119;-59
2022/04/12 07:08:26;;;;;;;0.70;0.60;;;19.70;42.90;;;;;;4899710;28;45243;-61
2022/04/12 07:10:51;;;;;;;1.02;0.68;;;19.80;42.90;;;;;;4909488;28;45461;-61
2022/04/12 07:13:17;;;;;;;0.90;0.60;;;19.90;42.80;;;;;;4899024;28;45284;-61
2022/04/12 07:15:43;;;;;;;1.20;0.50;;;20.00;42.70;;;;;;4900018;29;45479;-61
2022/04/12 07:18:10;;;;;;;2.50;0.70;;;20.10;42.60;;;;;;4868941;28;46078;-59
2022/04/12 07:20:35;;;;;;;1.25;0.70;;;20.20;42.60;;;;;;4907006;28;45370;-61
2022/04/12 07:23:01;;;;;;;1.05;0.65;;;20.30;42.50;;;;;;4909097;28;45242;-61
2022/04/12 07:25:27;;;;;;;2.78;0.63;;;20.40;42.40;;;;;;4902004;28;46316;-61
2022/04/12 07:27:52;;;;;;;1.17;0.60;;;20.50;42.30;;;;;;4902440;28;44909;-60
2022/04/12 07:30:18;;;;;;;1.45;0.68;;;20.60;42.30;;;;;;4900422;28;45003;-61
2022/04/12 07:32:44;;;;;;;2.00;0.65;;;20.70;42.30;;;;;;4904892;28;44795;-61
2022/04/12 07:35:09;;;;;;;0.70;0.50;;;20.80;42.10;;;;;;4901837;28;45823;-62
2022/04/12 07:37:35;;;;;;;1.25;0.52;;;20.90;42.00;;;;;;4912762;28;44796;-62
2022/04/12 07:40:01;;;;;;;1.08;0.52;;;21.10;42.00;;;;;;4899371;28;45216;-61
2022/04/12 07:42:27;;;;;;;1.08;0.50;;;21.10;41.90;;;;;;4901576;29;44682;-61
2022/04/12 07:44:53;;;;;;;1.67;0.70;;;21.20;41.90;;;;;;4882078;29;47004;-61
2022/04/12 07:47:18;;;;;;;1.30;0.63;;;21.30;41.80;;;;;;4905982;28;45194;-61
2022/04/12 07:49:44;;;;;;;1.05;0.45;;;21.40;41.70;;;;;;4892836;28;45428;-60
2022/04/12 07:52:09;;;;;;;0.80;0.50;;;21.50;41.70;;;;;;4913627;28;46064;-63
2022/04/12 07:54:35;;;;;;;1.15;0.60;;;21.60;41.60;;;;;;4910122;28;45484;-62
2022/04/12 07:57:00;;;;;;;1.73;0.60;;;21.70;41.50;;;;;;4883892;29;45434;-60
2022/04/12 07:59:26;;;;;;;1.63;0.50;;;21.80;41.40;;;;;;4899673;29;44933;-61
2022/04/12 08:01:51;;;;;;;2.85;0.50;;;21.90;41.40;;;;;;4899556;28;45570;-62
2022/04/12 08:04:17;;;;;;;1.15;0.68;;;22.00;41.30;;;;;;4909199;28;45794;-63
2022/04/12 08:06:43;;;;;;;1.73;0.70;;;22.10;41.30;;;;;;4903971;28;44960;-61
2022/04/12 08:09:09;;;;;;;1.60;0.57;;;22.20;41.20;;;;;;4916962;28;45095;-62
2022/04/12 08:11:35;;;;;;;1.08;0.50;;;22.30;41.10;;;;;;4889439;29;45365;-62
2022/04/12 08:14:00;;;;;;;3.97;0.70;;;22.40;41.10;;;;;;4895596;28;45495;-62
2022/04/12 08:16:26;;;;;;;0.50;0.50;;;22.40;40.90;;;;;;4895696;28;45064;-63
2022/04/12 08:18:52;;;;;;;1.42;0.60;;;22.50;40.90;;;;;;4898503;28;45529;-61
2022/04/12 08:21:37;;;;;;;0.57;0.47;;;22.60;40.80;;;;;;4902032;28;44687;-62
2022/04/12 08:24:03;;;;;;;3.20;0.30;;;22.70;40.40;;;;;;4900790;28;47469;-60
2022/04/12 08:26:29;;;;;;;0.90;0.70;;;22.80;40.70;;;;;;4906678;28;45173;-59
2022/04/12 08:28:55;;;;;;;0.30;0.30;;;22.80;40.60;;;;;;4906819;28;45380;-63
2022/04/12 08:31:20;;;;;;;0.50;0.35;;;22.90;40.60;;;;;;4881325;28;45404;-60
2022/04/12 08:33:46;;;;;;;0.43;0.40;;;23.00;40.50;;;;;;4907711;28;47194;-60
2022/04/12 08:36:12;;;;;;;0.68;0.40;;;23.10;40.50;;;;;;4904325;28;45273;-61
2022/04/12 08:38:38;;;;;;;1.40;0.40;;;23.10;40.40;;;;;;4884864;29;45230;-60
2022/04/12 08:41:03;;;;;;;0.50;0.40;;;23.20;40.40;;;;;;4887639;29;44928;-60
2022/04/12 08:43:29;;;;;;;0.50;0.40;;;23.30;40.40;;;;;;4897752;28;46162;-63
2022/04/12 08:45:55;;;;;;;0.77;0.40;;;23.30;40.30;;;;;;4903678;28;45441;-62
2022/04/12 08:48:20;;;;;;;1.98;0.65;;;23.40;40.20;;;;;;4885680;28;45583;-59
2022/04/12 08:50:47;;;;;;;0.63;0.35;;;23.40;40.20;;;;;;4899859;28;45439;-60
2022/04/12 08:53:12;;;;;;;0.40;0.40;;;23.50;40.20;;;;;;4884638;29;46069;-60
2022/04/12 08:55:39;;;;;;;0.70;0.43;;;23.50;40.10;;;;;;4889537;29;44912;-60
2022/04/12 08:58:04;;;;;;;1.05;0.45;;;23.60;40.10;;;;;;4903751;28;45470;-61
2022/04/12 09:00:30;;;;;;;0.90;0.50;;;23.70;40.10;;;;;;4884118;28;45340;-61
2022/04/12 09:02:59;;;;;;;0.65;0.32;;;23.70;40.00;;;;;;4904151;28;45927;-62
2022/04/12 09:05:25;;;;;;;1.95;0.40;;;23.70;40.60;;;;;;4912260;28;45198;-61
2022/04/12 09:07:50;;;;;;;0.93;0.28;;;23.80;40.10;;;;;;4883702;28;45393;-60
2022/04/12 09:10:17;;;;;;;0.43;0.30;;;23.80;40.10;;;;;;4895970;28;45449;-61
2022/04/12 09:12:42;;;;;;;0.52;0.40;;;23.90;40.00;;;;;;4876857;28;46107;-59
2022/04/12 09:15:12;;;;;;;0.50;0.50;;;23.90;39.90;;;;;;4900041;28;44954;-58
2022/04/12 09:17:39;;;;;;;0.38;0.38;;;24.00;39.90;;;;;;4901940;28;44714;-61
2022/04/12 09:20:10;;;;;;;0.47;0.32;;;24.00;39.90;;;;;;4901514;28;45673;-62
2022/04/12 09:22:36;;;;;;;0.98;0.40;;;24.10;39.80;;;;;;4882672;28;46303;-62
2022/04/12 09:25:02;;;;;;;1.92;0.50;;;24.10;39.90;;;;;;4908013;28;44696;-60
2022/04/12 09:27:29;;;;;;;2.25;0.30;;;24.20;39.80;;;;;;4881744;29;45176;-60
2022/04/12 09:30:06;;;;;;;0.50;0.35;;;24.20;39.70;;;;;;4898454;28;44918;-62
2022/04/12 09:32:36;;;;;;;1.10;0.30;;;24.20;39.40;;;;;;4894479;29;46127;-60
2022/04/12 09:35:02;;;;;;;0.43;0.30;;;24.20;39.50;;;;;;4894431;28;45390;-61
2022/04/12 09:37:32;;;;;;;0.65;0.47;;;24.30;39.70;;;;;;4899286;28;45359;-60
2022/04/12 09:40:02;;;;;;;0.40;0.30;;;24.30;39.50;;;;;;4898488;29;44723;-62
2022/04/12 09:42:37;;;;;;;0.85;0.40;;;24.30;39.60;;;;;;4899422;28;45466;-63
2022/04/12 09:45:04;;;;;;;1.10;0.40;;;24.30;39.40;;;;;;4898024;28;44995;-62
2022/04/12 09:47:31;;;;;;;1.45;0.40;;;24.30;39.60;;;;;;4898324;28;45351;-62
2022/04/12 09:49:56;;;;;;;0.30;0.30;;;24.40;39.60;;;;;;4899845;28;45068;-60
2022/04/12 09:52:22;;;;;;;2.13;0.35;;;24.40;39.60;;;;;;4900008;28;46129;-62
2022/04/12 09:54:48;;;;;;;0.45;0.30;;;24.40;39.70;;;;;;4894459;28;45337;-61
2022/04/12 09:57:14;;;;;;;1.10;0.38;;;24.40;39.60;;;;;;4898113;28;44992;-63
2022/04/12 09:59:39;;;;;;;0.63;0.28;;;24.40;39.70;;;;;;4876136;29;45701;-63
2022/04/12 10:02:05;;;;;;;0.77;0.50;;;24.40;39.60;;;;;;4861969;29;46272;-62
2022/04/12 10:04:30;;;;;;;1.35;0.30;;;24.40;39.60;;;;;;4874046;29;44727;-63
2022/04/12 10:06:56;;;;;;;1.33;0.50;;;24.40;39.50;;;;;;4848797;29;45287;-63
2022/04/12 10:09:22;;;;;;;0.63;0.50;;;24.50;39.60;;;;;;4870307;29;45185;-62
2022/04/12 10:11:48;;;;;;;0.98;0.40;;;24.50;39.50;;;;;;4885660;29;46272;-61
2022/04/12 10:14:14;;;;;;;1.08;0.50;;;24.50;39.50;;;;;;4885444;29;45193;-64
2022/04/12 10:16:40;;;;;;;1.10;0.40;;;24.50;39.50;;;;;;4881405;29;45730;-63
2022/04/12 10:19:06;;;;;;;0.85;0.38;;;24.50;39.50;;;;;;4875742;29;45285;-62
2022/04/12 10:21:31;;;;;;;1.75;0.35;;;24.60;39.50;;;;;;4867774;29;46977;-61
2022/04/12 10:23:58;;;;;;;0.50;0.30;;;24.60;39.50;;;;;;4860347;29;45274;-62
2022/04/12 10:26:24;;;;;;;0.70;0.20;;;24.60;39.50;;;;;;4879178;29;45883;-63
2022/04/12 10:29:00;;;;;;;0.50;0.30;;;24.60;39.50;;;;;;4869789;29;45306;-61
2022/04/12 10:31:32;;;;;;;0.47;0.40;;;24.60;39.20;;;;;;4874768;29;45932;-60
2022/04/12 10:34:04;;;;;;;0.82;0.50;;;24.60;39.40;;;;;;4871207;29;45526;-61
2022/04/12 10:36:55;;;;;;;1.13;0.25;;;24.60;39.30;;;;;;4875670;29;45253;-63
2022/04/12 10:39:47;;;;;;;0.40;0.30;;;24.60;39.10;;;;;;4875119;29;45225;-64
2022/04/12 10:42:20;;;;;;;0.63;0.30;;;24.60;39.20;;;;;;4865429;29;46201;-64
2022/04/12 10:44:46;;;;;;;1.50;0.60;;;24.60;39.40;;;;;;4882892;29;45079;-63
2022/04/12 10:47:27;;;;;;;0.80;0.35;;;24.70;39.50;;;;;;4877493;29;45485;-65
2022/04/12 10:49:53;;;;;;;0.77;0.40;;;24.70;39.30;;;;;;4880648;29;44784;-64
2022/04/12 10:52:19;;;;;;;1.55;0.32;;;24.70;39.50;;;;;;4874631;29;44992;-64
2022/04/12 10:54:46;;;;;;;0.70;0.25;;;24.70;39.50;;;;;;4878000;29;45082;-64
2022/04/12 10:57:23;;;;;;;0.65;0.30;;;24.70;39.50;;;;;;4864492;29;45325;-63
2022/04/12 11:00:14;;;;;;;1.45;0.40;;;24.80;39.40;;;;;;4874833;29;45616;-63
2022/04/12 11:02:43;;;;;;;0.30;0.30;;;24.80;39.40;;;;;;4896189;28;45192;-65
2022/04/12 11:05:37;;;;;;;0.30;0.28;;;24.80;39.60;;;;;;4901081;28;45304;-64
2022/04/12 11:08:06;;;;;;;1.58;0.30;;;24.80;39.30;;;;;;4902980;28;45376;-67
2022/04/12 11:10:31;;;;;;;1.02;0.40;;;24.80;39.50;;;;;;4893110;28;45076;-63
2022/04/12 11:13:08;;;;;;;0.45;0.40;;;24.80;39.50;;;;;;4892762;28;45991;-63
2022/04/12 11:15:34;;;;;;;0.65;0.20;;;24.80;39.40;;;;;;4894430;28;45490;-63
2022/04/12 11:18:08;;;;;;;0.50;0.30;;;24.80;39.50;;;;;;4901557;28;45328;-62
2022/04/12 11:20:34;;;;;;;0.40;0.25;;;24.90;39.50;;;;;;4902446;28;44687;-62
2022/04/12 11:23:02;;;;;;;0.40;0.30;;;24.90;39.60;;;;;;4898044;28;46113;-63
2022/04/12 11:25:27;;;;;;;1.27;0.20;;;24.90;39.60;;;;;;4880042;29;45070;-61
2022/04/12 11:27:59;;;;;;;0.55;0.32;;;24.90;39.60;;;;;;4893252;28;45543;-61
2022/04/12 11:30:28;;;;;;;1.88;0.20;;;24.90;39.50;;;;;;4894007;28;45269;-63
2022/04/12 11:32:54;;;;;;;0.32;0.30;;;24.90;39.60;;;;;;4879979;28;46193;-63
2022/04/12 11:35:20;;;;;;;0.63;0.40;;;24.90;39.60;;;;;;4894549;28;44831;-62
2022/04/12 11:37:46;;;;;;;0.28;0.28;;;24.90;39.70;;;;;;4875890;29;45361;-63
2022/04/12 11:40:12;;;;;;;0.50;0.22;;;25.00;39.70;;;;;;4889034;28;45577;-62
2022/04/12 11:42:37;;;;;;;0.20;0.20;;;25.00;40.20;;;;;;4879161;28;45704;-63
2022/04/12 11:45:03;;;;;;;2.25;0.20;;;25.00;39.60;;;;;;4863775;28;45483;-61
2022/04/12 11:47:33;;;;;;;0.57;0.20;;;25.00;39.70;;;;;;4894355;28;45532;-62
2022/04/12 11:49:59;;;;;;;0.65;0.20;;;25.10;39.70;;;;;;4875529;28;45849;-61
2022/04/12 11:52:25;;;;;;;0.40;0.30;;;25.00;39.60;;;;;;4874862;29;45257;-61
2022/04/12 11:54:51;;;;;;;0.85;0.30;;;25.10;39.70;;;;;;4873197;28;45290;-64
2022/04/12 11:57:21;;;;;;;1.20;0.30;;;25.10;39.70;;;;;;4879059;28;45522;-64
2022/04/12 12:00:00;;;;;;;0.65;0.30;;;25.10;39.60;;;;;;4893850;28;45682;-63
2022/04/12 12:02:27;;;;;;;1.50;0.40;;;25.10;39.50;;;;;;4892069;28;46853;-62
2022/04/12 12:04:57;;;;;;;1.27;0.47;;;25.10;39.70;;;;;;4862151;28;44976;-62
2022/04/12 12:07:23;;;;;;;0.75;0.40;;;25.10;39.70;;;;;;4874300;29;44870;-64
2022/04/12 12:09:59;;;;;;;0.75;0.28;;;25.10;39.70;;;;;;4895022;28;45415;-62
2022/04/12 12:12:34;;;;;;;0.43;0.25;;;25.10;39.60;;;;;;4895755;28;46118;-64
2022/04/12 12:15:22;;;;;;;0.20;0.20;;;25.20;39.70;;;;;;4893552;28;46125;-63
2022/04/12 12:17:49;;;;;;;0.90;0.38;;;25.20;39.60;;;;;;4873228;28;45266;-62
2022/04/12 12:20:17;;;;;;;0.80;0.40;;;25.20;39.80;;;;;;4894292;28;45318;-64
2022/04/12 12:22:44;;;;;;;1.67;0.60;;;25.20;39.80;;;;;;4872047;28;45725;-63
2022/04/12 12:25:13;;;;;;;0.32;0.20;;;25.20;39.80;;;;;;4893706;28;45719;-61
2022/04/12 12:27:39;;;;;;;0.63;0.20;;;25.20;39.80;;;;;;4893815;28;45353;-63
2022/04/12 12:30:08;;;;;;;0.50;0.50;;;25.20;39.90;;;;;;4895697;28;45357;-64
2022/04/12 12:32:34;;;;;;;0.32;0.22;;;25.20;39.90;;;;;;4895092;28;46176;-65
2022/04/12 12:35:03;;;;;;;0.65;0.38;;;25.20;39.90;;;;;;4891615;28;45296;-62
2022/04/12 12:37:28;;;;;;;2.97;0.30;;;25.30;40.00;;;;;;4879934;29;44612;-63
2022/04/12 12:39:54;;;;;;;0.40;0.20;;;25.20;40.00;;;;;;4884786;28;44858;-65
2022/04/12 12:42:21;;;;;;;1.00;0.30;;;25.30;40.00;;;;;;4899289;28;46111;-63
2022/04/12 12:44:47;;;;;;;1.20;0.20;;;25.30;40.00;;;;;;4884746;28;45254;-64
2022/04/12 12:47:12;;;;;;;0.30;0.20;;;25.30;40.00;;;;;;4900569;28;45301;-63
2022/04/12 12:49:39;;;;;;;0.43;0.20;;;25.30;40.10;;;;;;4896658;28;45457;-64
2022/04/12 12:52:07;;;;;;;0.73;0.40;;;25.30;40.00;;;;;;4898876;28;45651;-63
2022/04/12 12:54:32;;;;;;;0.43;0.20;;;25.30;40.00;;;;;;4880727;29;45300;-63
2022/04/12 12:56:58;;;;;;;0.45;0.20;;;25.30;40.10;;;;;;4901939;28;45455;-63
2022/04/12 12:59:34;;;;;;;0.35;0.20;;;25.30;40.10;;;;;;4875112;29;45458;-63
2022/04/12 13:02:10;;;;;;;0.63;0.25;;;25.30;40.00;;;;;;4898899;28;46033;-63
2022/04/12 13:04:40;;;;;;;0.80;0.30;;;25.30;40.00;;;;;;4879080;28;45599;-63
2022/04/12 13:07:10;;;;;;;0.17;0.17;;;25.40;40.10;;;;;;4898071;28;45096;-64
2022/04/12 13:09:40;;;;;;;0.30;0.20;;;25.40;40.10;;;;;;4892205;28;45943;-60
2022/04/12 13:12:07;;;;;;;0.40;0.20;;;25.40;40.20;;;;;;4896934;28;46050;-63
2022/04/12 13:14:33;;;;;;;0.28;0.25;;;25.40;40.20;;;;;;4882940;29;45835;-63
2022/04/12 13:16:58;;;;;;;1.38;0.20;;;25.40;40.20;;;;;;4884556;28;45442;-64
2022/04/12 13:19:28;;;;;;;0.22;0.22;;;25.40;40.10;;;;;;4904689;28;45067;-63
2022/04/12 13:21:53;;;;;;;0.30;0.30;;;25.40;40.20;;;;;;4882477;28;46108;-63
2022/04/12 13:24:20;;;;;;;0.20;0.20;;;25.40;40.20;;;;;;4898158;28;45402;-65
2022/04/12 13:26:45;;;;;;;0.85;0.40;;;25.40;40.20;;;;;;4901161;28;45381;-62
2022/04/12 13:29:11;;;;;;;1.65;0.30;;;25.40;40.20;;;;;;4903926;28;45330;-64
2022/04/12 13:31:36;;;;;;;1.10;0.32;;;25.40;40.20;;;;;;4894879;28;46164;-64
2022/04/12 13:34:02;;;;;;;0.28;0.20;;;25.40;40.20;;;;;;4881436;29;45435;-62
2022/04/12 13:36:28;;;;;;;0.20;0.20;;;25.40;40.20;;;;;;4901536;28;45601;-60
2022/04/12 13:38:53;;;;;;;0.57;0.30;;;25.40;40.20;;;;;;4905029;28;44941;-64
2022/04/12 13:41:19;;;;;;;0.30;0.25;;;25.40;40.20;;;;;;4895287;28;46151;-62
2022/04/12 13:43:44;;;;;;;0.45;0.22;;;25.40;40.20;;;;;;4882174;28;45796;-64
2022/04/12 13:46:10;;;;;;;0.30;0.30;;;25.40;40.20;;;;;;4899166;28;45130;-64
2022/04/12 13:48:36;;;;;;;0.73;0.30;;;25.40;40.30;;;;;;4895758;28;44771;-61
2022/04/12 13:51:02;;;;;;;0.20;0.20;;;25.50;40.30;;;;;;4894817;28;46885;-63
2022/04/12 13:53:28;;;;;;;0.25;0.20;;;25.40;40.30;;;;;;4899736;28;45597;-63
2022/04/12 13:55:53;;;;;;;0.20;0.20;;;25.40;40.20;;;;;;4896658;28;45282;-63
2022/04/12 13:58:19;;;;;;;0.32;0.15;;;25.50;40.30;;;;;;4899549;28;45487;-62
2022/04/12 14:00:45;;;;;;;0.20;0.20;;;25.50;40.30;;;;;;4893676;28;45983;-62
2022/04/12 14:03:12;;;;;;;0.30;0.30;;;25.50;40.30;;;;;;4890820;28;46161;-62
2022/04/12 14:05:38;;;;;;;0.32;0.30;;;25.50;40.40;;;;;;4899143;28;45286;-66
2022/04/12 14:08:05;;;;;;;0.30;0.20;;;25.40;40.30;;;;;;4902376;28;45631;-60
2022/04/12 14:10:31;;;;;;;0.32;0.30;;;25.50;40.30;;;;;;4897288;28;46122;-62
2022/04/12 14:12:56;;;;;;;0.20;0.15;;;25.50;40.30;;;;;;4902089;28;45259;-64
2022/04/12 14:15:22;;;;;;;0.43;0.30;;;25.50;40.40;;;;;;4898123;28;45090;-63
2022/04/12 14:17:47;;;;;;;0.40;0.30;;;25.50;40.40;;;;;;4901016;28;45395;-63
2022/04/12 14:20:13;;;;;;;0.28;0.20;;;25.50;40.40;;;;;;4904146;28;45734;-63
2022/04/12 14:22:39;;;;;;;0.47;0.20;;;25.50;40.40;;;;;;4899911;28;45513;-62
2022/04/12 14:25:05;;;;;;;0.25;0.20;;;25.50;40.30;;;;;;4905942;28;45344;-63
2022/04/12 14:27:30;;;;;;;0.57;0.28;;;25.50;40.30;;;;;;4895621;29;45364;-62
2022/04/12 14:29:56;;;;;;;0.17;0.17;;;25.50;40.40;;;;;;4897969;29;46307;-62
2022/04/12 14:32:22;;;;;;;0.40;0.30;;;25.50;40.40;;;;;;4897993;28;45337;-63
2022/04/12 14:34:47;;;;;;;1.00;0.20;;;25.60;40.50;;;;;;4905863;28;44828;-62
2022/04/12 14:37:13;;;;;;;0.75;0.32;;;25.50;40.40;;;;;;4903301;28;45295;-59
2022/04/12 14:39:38;;;;;;;0.65;0.30;;;25.50;40.40;;;;;;4903274;28;45310;-62
2022/04/12 14:42:04;;;;;;;0.40;0.30;;;25.50;40.40;;;;;;4903066;28;45273;-62
2022/04/12 14:44:29;;;;;;;0.20;0.20;;;25.60;40.50;;;;;;4884460;28;45271;-62
2022/04/12 14:46:55;;;;;;;0.20;0.20;;;25.50;40.40;;;;;;4909801;28;45088;-62
2022/04/12 14:49:21;;;;;;;2.20;0.25;;;25.50;40.50;;;;;;4909524;28;46456;-63
2022/04/12 14:51:46;;;;;;;;;;;25.60;40.50;;;;;;4900077;28;45170;-62
2022/04/12 14:54:12;;;;;;;1.15;0.30;;;25.50;40.40;;;;;;4908180;28;45157;-62
2022/04/12 14:56:37;;;;;;;0.85;0.20;;;25.50;40.50;;;;;;4905747;28;45577;-60
2022/04/12 14:59:03;;;;;;;0.57;0.30;;;25.60;40.50;;;;;;4885915;29;46383;-62
2022/04/12 15:01:29;;;;;;;0.75;0.30;;;25.60;40.50;;;;;;4880666;29;45700;-62
2022/04/12 15:03:54;;;;;;;1.52;0.30;;;25.60;40.50;;;;;;4881240;29;46400;-62
2022/04/12 15:06:20;;;;;;;0.47;0.30;;;25.60;40.60;;;;;;4889018;29;44811;-62
2022/04/12 15:08:45;;;;;;;1.52;0.30;;;25.60;40.60;;;;;;4878375;29;45204;-61
2022/04/12 15:11:11;;;;;;;0.52;0.30;;;25.60;40.60;;;;;;4879605;29;45295;-61
2022/04/12 15:13:36;;;;;;;0.40;0.30;;;25.60;40.40;;;;;;4884252;29;45189;-63
2022/04/12 15:16:02;;;;;;;0.20;0.20;;;25.50;40.40;;;;;;4885821;29;45051;-62
2022/04/12 15:18:28;;;;;;;0.30;0.30;;;25.50;40.60;;;;;;4886292;29;46061;-60
2022/04/12 15:20:54;;;;;;;0.43;0.20;;;25.40;40.60;;;;;;4870426;29;45355;-60
2022/04/12 15:23:19;;;;;;;0.30;0.22;;;25.40;40.70;;;;;;4882475;29;45445;-61
2022/04/12 15:25:46;;;;;;;0.43;0.22;;;25.40;40.80;;;;;;4881985;29;44848;-63
2022/04/12 15:28:12;;;;;;;0.90;0.30;;;25.30;40.90;;;;;;4881062;29;46023;-64
2022/04/12 15:30:38;;;;;;;0.50;0.30;;;25.30;40.90;;;;;;4876521;29;45213;-62
2022/04/12 15:33:06;;;;;;;0.35;0.30;;;25.20;41.00;;;;;;4887604;29;45392;-62
2022/04/12 15:35:31;;;;;;;0.35;0.20;;;25.20;41.10;;;;;;4868811;29;45550;-62
2022/04/12 15:38:02;;;;;;;1.63;0.20;;;25.10;41.10;;;;;;4885469;29;46727;-62
2022/04/12 15:40:28;;;;;;;1.58;0.20;;;25.00;41.20;;;;;;4880910;29;45091;-61
2022/04/12 15:42:54;;;;;;;0.20;0.20;;;25.00;41.30;;;;;;4855414;29;45225;-62
2022/04/12 15:45:19;;;;;;;0.20;0.20;;;24.90;41.30;;;;;;4881989;29;45181;-61